Time;durP1;ratioP1;P1;durP2;ratioP2;P2;SDS_P1;SDS_P2;PMS_P1;PMS_P2;Temp;Humidity;BMP_temperature;BMP_pressure;BME280_temperature;BME280_humidity;BME280_pressure;Samples;Min_cycle;Max_cycle;Signal;HPM_P1;HPM_P2
2021/12/28 00:01:04;;;;;;;25.63;16.70;;;;;;;1.64;100.00;96737.78;4927803;29;20676;-73
2021/12/28 00:03:32;;;;;;;24.83;16.67;;;;;;;1.68;100.00;96726.91;4891006;29;20430;-74
2021/12/28 00:06:00;;;;;;;20.90;14.63;;;;;;;1.74;100.00;96730.75;4923388;29;20773;-75
2021/12/28 00:08:29;;;;;;;22.70;15.47;;;;;;;1.82;100.00;96724.84;4921868;29;20228;-74
2021/12/28 00:10:58;;;;;;;21.23;16.10;;;;;;;1.80;100.00;96726.78;4917661;29;20262;-75
2021/12/28 00:13:27;;;;;;;19.87;15.80;;;;;;;1.80;100.00;96729.41;4924232;29;20229;-74
2021/12/28 00:16:18;;;;;;;22.27;15.23;;;;;;;1.86;100.00;96724.41;4925825;29;20216;-75
2021/12/28 00:18:46;;;;;;;21.40;14.73;;;;;;;1.87;100.00;96727.88;4906137;29;20924;-75
2021/12/28 00:21:14;;;;;;;19.70;15.37;;;;;;;1.80;100.00;96727.59;4925504;29;20216;-75
2021/12/28 00:23:42;;;;;;;20.80;14.27;;;;;;;1.95;100.00;96732.41;4923737;29;20207;-75
2021/12/28 00:26:13;;;;;;;20.60;13.83;;;;;;;1.99;100.00;96723.31;4919981;29;20215;-75
2021/12/28 00:28:41;;;;;;;20.63;15.70;;;;;;;2.01;100.00;96719.56;4924396;29;20230;-73
2021/12/28 00:31:11;;;;;;;20.53;13.77;;;;;;;1.97;100.00;96722.63;4934018;29;20211;-75
2021/12/28 00:33:39;;;;;;;18.50;15.57;;;;;;;1.95;100.00;96725.38;4896207;29;20906;-75
2021/12/28 00:36:07;;;;;;;17.40;14.10;;;;;;;2.01;100.00;96724.81;4924863;29;20215;-75
2021/12/28 00:38:35;;;;;;;21.20;15.10;;;;;;;1.99;100.00;96725.91;4925694;29;20812;-74
2021/12/28 00:41:04;;;;;;;21.33;14.37;;;;;;;2.01;100.00;96718.75;4924563;29;20719;-75
2021/12/28 00:43:35;;;;;;;18.37;13.70;;;;;;;2.08;100.00;96719.00;4916394;29;20794;-75
2021/12/28 00:46:04;;;;;;;19.27;14.10;;;;;;;2.00;100.00;96717.94;4930555;29;20203;-73
2021/12/28 00:48:32;;;;;;;19.10;14.47;;;;;;;2.04;100.00;96710.63;4896612;29;21343;-76
2021/12/28 00:51:01;;;;;;;19.10;13.53;;;;;;;2.10;100.00;96717.91;4930212;29;20212;-74
2021/12/28 00:53:29;;;;;;;16.87;12.87;;;;;;;2.11;100.00;96716.13;4922474;29;20211;-76
2021/12/28 00:55:57;;;;;;;16.87;13.00;;;;;;;2.03;100.00;96725.47;4929811;29;20219;-75
2021/12/28 00:58:25;;;;;;;17.53;14.23;;;;;;;2.12;100.00;96733.47;4916970;29;20243;-72
2021/12/28 01:00:54;;;;;;;17.20;13.50;;;;;;;2.08;100.00;96722.44;4913830;29;20226;-73
2021/12/28 01:03:22;;;;;;;15.70;13.57;;;;;;;2.11;100.00;96714.31;4930865;29;20220;-75
2021/12/28 01:05:50;;;;;;;20.30;14.97;;;;;;;2.12;100.00;96720.41;4900262;29;20241;-73
2021/12/28 01:08:19;;;;;;;16.23;13.77;;;;;;;2.05;100.00;96720.13;4926499;29;20234;-74
2021/12/28 01:10:49;;;;;;;17.90;12.80;;;;;;;2.06;100.00;96715.72;4930664;28;20277;-73
2021/12/28 01:13:18;;;;;;;17.30;13.37;;;;;;;2.15;100.00;96707.03;4915323;29;20688;-74
2021/12/28 01:15:47;;;;;;;17.07;14.03;;;;;;;2.20;100.00;96710.03;4929577;29;20208;-75
2021/12/28 01:18:16;;;;;;;16.57;12.90;;;;;;;2.13;100.00;96703.75;4930538;29;20227;-74
2021/12/28 01:20:45;;;;;;;16.80;12.53;;;;;;;2.23;100.00;96707.13;4900857;29;20617;-75
2021/12/28 01:23:13;;;;;;;14.43;11.80;;;;;;;2.17;100.00;96699.88;4924354;29;20222;-73
2021/12/28 01:25:42;;;;;;;16.03;13.03;;;;;;;2.19;100.00;96713.63;4933046;29;20498;-74
2021/12/28 01:28:11;;;;;;;14.33;12.20;;;;;;;2.13;100.00;96709.78;4915482;29;20234;-74
2021/12/28 01:30:40;;;;;;;15.07;12.03;;;;;;;2.13;100.00;96716.81;4927771;29;20536;-74
2021/12/28 01:33:09;;;;;;;17.30;12.87;;;;;;;2.16;100.00;96712.09;4928728;29;20223;-73
2021/12/28 01:35:39;;;;;;;14.67;11.33;;;;;;;2.23;100.00;96711.53;4894495;29;21210;-75
2021/12/28 01:38:08;;;;;;;13.07;10.97;;;;;;;2.28;100.00;96720.59;4921219;29;20268;-73
2021/12/28 01:40:39;;;;;;;14.23;12.50;;;;;;;2.29;100.00;96719.63;4927169;29;20428;-75
2021/12/28 01:43:12;;;;;;;13.83;12.13;;;;;;;2.29;100.00;96711.78;4917877;29;20462;-73
2021/12/28 01:45:44;;;;;;;15.43;12.03;;;;;;;2.28;100.00;96712.75;4926284;29;20207;-75
2021/12/28 01:48:15;;;;;;;16.00;12.47;;;;;;;2.41;100.00;96703.75;4922545;29;20275;-73
2021/12/28 01:50:45;;;;;;;16.10;12.07;;;;;;;2.44;100.00;96700.84;4930145;29;20207;-75
2021/12/28 01:53:13;;;;;;;13.53;11.00;;;;;;;2.35;100.00;96696.50;4893226;29;20207;-74
2021/12/28 01:55:43;;;;;;;13.00;11.10;;;;;;;2.30;100.00;96689.09;4925218;29;20227;-75
2021/12/28 01:58:12;;;;;;;13.00;11.50;;;;;;;2.19;100.00;96687.47;4916817;29;20317;-73
2021/12/28 02:00:41;;;;;;;14.67;11.67;;;;;;;2.14;100.00;96684.47;4925620;29;20446;-74
2021/12/28 02:03:11;;;;;;;12.50;10.17;;;;;;;2.19;100.00;96679.63;4928238;29;20211;-73
2021/12/28 02:05:40;;;;;;;12.83;10.67;;;;;;;2.24;100.00;96672.19;4929447;29;20227;-75
2021/12/28 02:08:12;;;;;;;13.20;11.37;;;;;;;2.19;100.00;96671.81;4894428;29;20243;-73
2021/12/28 02:10:41;;;;;;;12.30;10.40;;;;;;;2.15;100.00;96662.59;4925894;29;20422;-75
2021/12/28 02:13:09;;;;;;;12.80;11.23;;;;;;;2.03;100.00;96667.19;4922988;29;20223;-73
2021/12/28 02:15:38;;;;;;;12.03;10.73;;;;;;;1.97;100.00;96671.19;4917652;29;20242;-75
2021/12/28 02:18:08;;;;;;;11.13;9.50;;;;;;;1.93;100.00;96672.44;4927379;29;20315;-73
2021/12/28 02:20:39;;;;;;;11.20;10.07;;;;;;;1.96;100.00;96677.38;4928112;29;20786;-75
2021/12/28 02:23:07;;;;;;;10.73;9.67;;;;;;;1.95;100.00;96686.16;4897597;29;20835;-74
2021/12/28 02:25:36;;;;;;;11.67;9.87;;;;;;;1.83;100.00;96687.31;4926507;29;20327;-75
2021/12/28 02:28:05;;;;;;;11.10;9.90;;;;;;;1.79;100.00;96678.91;4925146;29;20208;-74
2021/12/28 02:30:33;;;;;;;12.97;11.07;;;;;;;1.80;100.00;96683.19;4914529;29;20449;-75
2021/12/28 02:33:01;;;;;;;11.70;9.67;;;;;;;1.81;100.00;96678.78;4926711;29;20207;-75
2021/12/28 02:35:29;;;;;;;11.30;9.90;;;;;;;1.78;100.00;96672.06;4925124;29;20230;-76
2021/12/28 02:37:58;;;;;;;13.33;10.77;;;;;;;1.88;100.00;96672.84;4896111;29;20227;-75
2021/12/28 02:40:29;;;;;;;11.20;9.97;;;;;;;1.90;100.00;96671.91;4919585;29;20249;-75
2021/12/28 02:42:58;;;;;;;12.30;10.67;;;;;;;1.96;100.00;96672.13;4923742;29;20213;-75
2021/12/28 02:45:28;;;;;;;10.77;9.60;;;;;;;1.95;100.00;96675.72;4914678;29;20379;-75
2021/12/28 02:47:57;;;;;;;11.63;10.43;;;;;;;2.01;100.00;96664.69;4923487;29;20282;-75
2021/12/28 02:50:28;;;;;;;11.00;9.90;;;;;;;2.13;100.00;96664.53;4921948;29;20204;-75
2021/12/28 02:52:58;;;;;;;11.73;10.10;;;;;;;2.02;100.00;96666.34;4923608;29;20211;-71
2021/12/28 02:55:29;;;;;;;11.50;10.33;;;;;;;2.15;100.00;96667.84;4889535;29;21133;-73
2021/12/28 02:57:58;;;;;;;13.07;10.43;;;;;;;2.18;100.00;96657.09;4926003;29;20259;-72
2021/12/28 03:00:35;;;;;;;12.50;10.97;;;;;;;2.17;100.00;96653.63;4920888;29;20322;-73
2021/12/28 03:03:07;;;;;;;13.47;10.27;;;;;;;2.08;100.00;96651.06;4915964;29;20223;-71
2021/12/28 03:05:36;;;;;;;12.17;10.50;;;;;;;1.96;100.00;96648.63;4911142;29;20245;-73
2021/12/28 03:08:07;;;;;;;11.70;10.50;;;;;;;1.94;100.00;96650.56;4908729;29;20211;-73
2021/12/28 03:10:35;;;;;;;13.57;10.80;;;;;;;1.94;100.00;96644.53;4893031;29;20216;-71
2021/12/28 03:13:03;;;;;;;12.33;10.70;;;;;;;1.94;100.00;96640.09;4923395;29;20203;-73
2021/12/28 03:15:31;;;;;;;11.37;9.87;;;;;;;1.83;100.00;96627.22;4926482;29;20627;-74
2021/12/28 03:17:59;;;;;;;13.00;10.73;;;;;;;1.93;100.00;96635.84;4911605;29;20223;-73
2021/12/28 03:20:28;;;;;;;11.83;10.67;;;;;;;1.87;100.00;96624.16;4922926;29;20256;-72
2021/12/28 03:22:56;;;;;;;12.40;11.03;;;;;;;1.90;100.00;96627.50;4916838;29;20219;-72
2021/12/28 03:25:25;;;;;;;12.40;10.77;;;;;;;1.87;100.00;96623.38;4894813;29;20897;-73
2021/12/28 03:27:53;;;;;;;11.43;10.17;;;;;;;1.80;100.00;96617.06;4916973;29;20902;-72
2021/12/28 03:30:21;;;;;;;14.23;11.10;;;;;;;1.80;100.00;96611.84;4923840;29;20203;-73
2021/12/28 03:32:51;;;;;;;11.90;10.47;;;;;;;1.80;100.00;96611.84;4909143;29;20218;-72
2021/12/28 03:35:19;;;;;;;13.17;11.70;;;;;;;1.93;100.00;96606.31;4912413;29;20224;-71
2021/12/28 03:37:47;;;;;;;11.17;10.07;;;;;;;2.05;100.00;96601.69;4921683;29;20211;-71
2021/12/28 03:40:16;;;;;;;13.53;10.87;;;;;;;2.10;100.00;96609.94;4898179;29;20227;-70
2021/12/28 03:42:45;;;;;;;13.03;11.17;;;;;;;2.14;100.00;96606.06;4921432;29;20207;-72
2021/12/28 03:45:14;;;;;;;13.20;11.80;;;;;;;2.19;100.00;96601.22;4919805;29;20655;-72
2021/12/28 03:47:42;;;;;;;15.67;10.93;;;;;;;2.29;100.00;96601.19;4924575;29;20270;-71
2021/12/28 03:50:12;;;;;;;14.63;11.80;;;;;;;2.36;100.00;96598.78;4901802;28;20250;-74
2021/12/28 03:52:40;;;;;;;14.97;10.77;;;;;;;2.38;100.00;96587.22;4922921;29;20215;-72
2021/12/28 03:55:09;;;;;;;15.33;11.50;;;;;;;2.43;100.00;96584.16;4915096;29;20216;-74
2021/12/28 03:57:39;;;;;;;16.63;11.37;;;;;;;2.48;100.00;96581.94;4891138;29;20580;-75
2021/12/28 04:00:11;;;;;;;14.43;11.50;;;;;;;2.44;100.00;96580.56;4921659;29;20244;-73
2021/12/28 04:02:40;;;;;;;14.40;12.17;;;;;;;2.35;100.00;96571.84;4922864;29;20241;-71
2021/12/28 04:05:09;;;;;;;16.43;11.27;;;;;;;2.34;100.00;96569.34;4910022;29;21203;-71
2021/12/28 04:07:37;;;;;;;15.27;11.33;;;;;;;2.27;100.00;96558.66;4918732;29;20247;-72
2021/12/28 04:10:08;;;;;;;16.60;12.60;;;;;;;2.32;100.00;96561.66;4921821;29;20465;-72
2021/12/28 04:12:37;;;;;;;14.53;12.97;;;;;;;2.28;100.00;96550.69;4893190;29;20282;-72
2021/12/28 04:15:06;;;;;;;18.43;12.43;;;;;;;2.35;100.00;96553.53;4919700;29;20252;-72
2021/12/28 04:17:37;;;;;;;16.20;12.33;;;;;;;2.36;100.00;96549.94;4927729;29;20208;-73
2021/12/28 04:20:10;;;;;;;15.67;11.90;;;;;;;2.39;100.00;96548.81;4915041;29;20925;-74
2021/12/28 04:22:38;;;;;;;15.93;12.57;;;;;;;2.30;100.00;96543.50;4922893;29;20223;-73
2021/12/28 04:25:08;;;;;;;13.60;12.13;;;;;;;2.36;100.00;96543.88;4922374;29;20223;-73
2021/12/28 04:27:36;;;;;;;19.03;13.80;;;;;;;2.25;100.00;96550.97;4920503;29;20215;-74
2021/12/28 04:30:07;;;;;;;15.90;13.43;;;;;;;2.33;100.00;96546.78;4900226;29;20404;-74
2021/12/28 04:32:36;;;;;;;15.53;12.27;;;;;;;2.23;100.00;96550.28;4922297;29;20557;-73
2021/12/28 04:35:05;;;;;;;17.00;13.97;;;;;;;2.33;100.00;96560.69;4923355;29;20211;-74
2021/12/28 04:37:33;;;;;;;16.47;12.77;;;;;;;2.38;100.00;96555.00;4912383;29;20226;-73
2021/12/28 04:40:08;;;;;;;18.07;12.03;;;;;;;2.45;100.00;96559.50;4919817;29;20231;-74
2021/12/28 04:42:36;;;;;;;16.93;13.47;;;;;;;2.44;100.00;96560.47;4914607;29;20270;-73
2021/12/28 04:45:07;;;;;;;20.70;14.20;;;;;;;2.55;100.00;96554.22;4906238;29;20438;-73
2021/12/28 04:47:37;;;;;;;16.20;12.03;;;;;;;2.42;100.00;96553.75;4926934;29;20208;-71
2021/12/28 04:50:08;;;;;;;19.63;12.87;;;;;;;2.43;100.00;96556.22;4927012;29;20252;-73
2021/12/28 04:52:37;;;;;;;15.70;12.07;;;;;;;2.54;100.00;96563.03;4894372;29;20226;-72
2021/12/28 04:55:07;;;;;;;17.00;12.70;;;;;;;2.54;100.00;96580.50;4907021;29;20240;-73
2021/12/28 04:57:35;;;;;;;19.90;12.67;;;;;;;2.62;100.00;96561.47;4914144;29;20223;-73
2021/12/28 05:00:04;;;;;;;18.03;13.27;;;;;;;2.59;100.00;96565.19;4887089;29;20906;-71
2021/12/28 05:02:32;;;;;;;17.23;12.50;;;;;;;2.60;100.00;96566.84;4927085;29;20207;-72
2021/12/28 05:05:03;;;;;;;18.33;12.80;;;;;;;2.63;100.00;96557.88;4923615;29;20227;-72
2021/12/28 05:07:31;;;;;;;19.87;13.53;;;;;;;2.54;100.00;96559.59;4909566;29;20295;-70
2021/12/28 05:09:59;;;;;;;22.43;14.17;;;;;;;2.53;100.00;96571.00;4907802;29;20766;-72
2021/12/28 05:12:28;;;;;;;16.43;11.47;;;;;;;2.57;100.00;96574.97;4929846;29;20215;-72
2021/12/28 05:14:59;;;;;;;18.90;12.83;;;;;;;2.66;100.00;96568.03;4886727;29;20261;-73
2021/12/28 05:17:27;;;;;;;18.33;12.73;;;;;;;2.68;100.00;96556.47;4921903;29;20216;-74
2021/12/28 05:19:56;;;;;;;20.57;13.60;;;;;;;2.67;100.00;96564.44;4930432;29;20235;-72
2021/12/28 05:22:26;;;;;;;20.27;13.83;;;;;;;2.71;100.00;96545.69;4915895;29;20336;-73
2021/12/28 05:24:54;;;;;;;19.73;13.37;;;;;;;2.71;100.00;96544.88;4922507;29;20207;-72
2021/12/28 05:27:22;;;;;;;19.63;13.47;;;;;;;2.67;100.00;96541.75;4926846;29;20498;-74
2021/12/28 05:29:50;;;;;;;18.40;13.47;;;;;;;2.71;100.00;96531.78;4899857;29;20235;-72
2021/12/28 05:32:18;;;;;;;17.97;14.00;;;;;;;2.72;100.00;96536.03;4913128;29;20424;-72
2021/12/28 05:34:46;;;;;;;19.90;14.13;;;;;;;2.71;100.00;96542.25;4929302;29;20211;-73
2021/12/28 05:37:16;;;;;;;19.37;12.77;;;;;;;2.80;100.00;96533.50;4924755;29;20242;-73
2021/12/28 05:39:45;;;;;;;18.93;14.23;;;;;;;2.72;100.00;96533.44;4917582;29;20243;-73
2021/12/28 05:42:13;;;;;;;16.23;12.07;;;;;;;2.76;100.00;96529.53;4913470;29;20331;-73
2021/12/28 05:44:41;;;;;;;20.10;14.43;;;;;;;2.72;100.00;96525.56;4918460;29;20502;-71
2021/12/28 05:47:09;;;;;;;17.47;13.20;;;;;;;2.71;100.00;96527.38;4890954;29;20215;-73
2021/12/28 05:49:37;;;;;;;22.67;14.67;;;;;;;2.74;100.00;96524.47;4927245;29;20243;-72
2021/12/28 05:52:06;;;;;;;20.13;13.27;;;;;;;2.72;100.00;96518.56;4924213;29;20405;-72
2021/12/28 05:54:34;;;;;;;19.67;13.40;;;;;;;2.65;100.00;96514.91;4915196;29;20215;-70
2021/12/28 05:57:04;;;;;;;15.83;12.63;;;;;;;2.66;100.00;96520.97;4910360;29;20288;-71
2021/12/28 05:59:32;;;;;;;19.63;13.20;;;;;;;2.63;100.00;96510.78;4929148;29;20782;-72
2021/12/28 06:02:00;;;;;;;17.27;12.57;;;;;;;2.64;100.00;96522.91;4881934;29;20613;-72
2021/12/28 06:04:29;;;;;;;22.93;13.47;;;;;;;2.65;100.00;96520.16;4924426;29;20310;-72
2021/12/28 06:06:56;;;;;;;19.77;13.33;;;;;;;2.67;100.00;96517.38;4930246;29;20628;-71
2021/12/28 06:09:24;;;;;;;21.07;13.73;;;;;;;2.65;100.00;96520.16;4914469;29;20235;-73
2021/12/28 06:11:52;;;;;;;18.80;13.27;;;;;;;2.63;100.00;96513.41;4912965;29;20211;-74
2021/12/28 06:14:22;;;;;;;20.87;13.57;;;;;;;2.65;100.00;96514.91;4924414;29;20214;-74
2021/12/28 06:16:50;;;;;;;23.67;13.73;;;;;;;2.59;100.00;96518.09;4879004;29;20494;-72
2021/12/28 06:19:17;;;;;;;19.77;13.30;;;;;;;2.59;100.00;96515.50;4922896;29;20235;-74
2021/12/28 06:21:46;;;;;;;20.93;13.57;;;;;;;2.68;100.00;96524.25;4902058;29;20380;-71
2021/12/28 06:24:14;;;;;;;17.13;13.73;;;;;;;2.69;100.00;96518.88;4922684;29;20747;-72
2021/12/28 06:26:43;;;;;;;21.00;14.90;;;;;;;2.66;100.00;96520.97;4899400;29;20227;-73
2021/12/28 06:29:11;;;;;;;21.23;12.80;;;;;;;2.85;100.00;96523.41;4923687;29;20246;-71
2021/12/28 06:31:40;;;;;;;21.67;13.80;;;;;;;2.75;100.00;96539.19;4912958;29;20205;-72
2021/12/28 06:34:09;;;;;;;17.93;12.23;;;;;;;2.86;100.00;96527.69;4899094;29;20230;-72
2021/12/28 06:36:37;;;;;;;20.57;13.90;;;;;;;2.87;100.00;96533.72;4922508;29;20211;-72
2021/12/28 06:39:06;;;;;;;20.23;13.53;;;;;;;2.97;100.00;96533.63;4930130;29;20228;-72
2021/12/28 06:41:34;;;;;;;18.30;13.13;;;;;;;2.86;100.00;96521.59;4914050;29;20227;-72
2021/12/28 06:44:02;;;;;;;17.40;12.87;;;;;;;2.79;100.00;96524.00;4917592;29;20484;-69
2021/12/28 06:46:30;;;;;;;21.07;13.40;;;;;;;2.81;100.00;96522.06;4916390;29;20223;-72
2021/12/28 06:48:59;;;;;;;17.23;13.40;;;;;;;2.80;100.00;96523.03;4881801;29;20279;-72
2021/12/28 06:51:27;;;;;;;21.07;13.60;;;;;;;2.77;100.00;96525.94;4925624;29;20346;-73
2021/12/28 06:53:55;;;;;;;16.93;13.70;;;;;;;2.85;100.00;96514.72;4916732;29;20603;-71
2021/12/28 06:56:24;;;;;;;17.20;13.33;;;;;;;2.85;100.00;96519.97;4915050;29;20561;-71
2021/12/28 06:58:52;;;;;;;22.37;14.07;;;;;;;2.74;100.00;96514.00;4914417;29;20237;-72
2021/12/28 07:01:20;;;;;;;19.07;13.33;;;;;;;2.66;100.00;96502.66;4922331;29;20466;-72
2021/12/28 07:03:48;;;;;;;18.20;13.47;;;;;;;2.73;100.00;96501.91;4890521;29;20294;-71
2021/12/28 07:06:17;;;;;;;19.47;13.80;;;;;;;2.66;100.00;96507.88;4923678;29;20207;-73
2021/12/28 07:08:46;;;;;;;16.13;12.73;;;;;;;2.67;100.00;96499.91;4916340;29;20239;-75
2021/12/28 07:11:14;;;;;;;18.17;12.10;;;;;;;2.67;100.00;96501.66;4915300;29;20214;-73
2021/12/28 07:13:41;;;;;;;17.97;12.93;;;;;;;2.65;100.00;96499.22;4903059;29;20477;-74
2021/12/28 07:16:09;;;;;;;19.07;12.87;;;;;;;2.63;100.00;96502.94;4927437;29;20214;-73
2021/12/28 07:18:38;;;;;;;18.43;12.63;;;;;;;2.60;100.00;96507.50;4899313;29;20317;-72
2021/12/28 07:21:06;;;;;;;17.53;13.07;;;;;;;2.65;100.00;96512.31;4907166;29;20506;-73
2021/12/28 07:23:35;;;;;;;20.20;13.70;;;;;;;2.59;100.00;96510.25;4932685;29;20222;-75
2021/12/28 07:26:03;;;;;;;16.37;12.70;;;;;;;2.50;100.00;96495.47;4915501;29;20215;-74
2021/12/28 07:28:31;;;;;;;22.30;12.70;;;;;;;2.49;100.00;96492.06;4916679;29;20320;-73
2021/12/28 07:30:59;;;;;;;17.73;12.73;;;;;;;2.41;100.00;96494.56;4912910;29;20220;-74
2021/12/28 07:33:27;;;;;;;20.17;12.63;;;;;;;2.36;100.00;96488.97;4923706;29;20439;-73
2021/12/28 07:35:55;;;;;;;15.93;12.83;;;;;;;2.43;100.00;96495.25;4891669;28;20381;-75
2021/12/28 07:38:23;;;;;;;17.40;12.57;;;;;;;2.46;100.00;96498.41;4928870;29;20231;-72
2021/12/28 07:40:53;;;;;;;17.07;12.77;;;;;;;2.45;100.00;96498.53;4922498;29;20218;-73
2021/12/28 07:43:21;;;;;;;14.20;11.10;;;;;;;2.49;100.00;96499.06;4920011;29;20231;-73
2021/12/28 07:45:49;;;;;;;16.20;12.13;;;;;;;2.54;100.00;96517.75;4924521;29;20215;-72
2021/12/28 07:48:17;;;;;;;16.33;11.77;;;;;;;2.56;100.00;96511.41;4925759;29;20238;-74
2021/12/28 07:50:45;;;;;;;14.30;11.53;;;;;;;2.39;100.00;96510.44;4910355;29;20203;-73
2021/12/28 07:53:13;;;;;;;13.77;11.17;;;;;;;2.35;100.00;96505.63;4918136;29;20216;-73
2021/12/28 07:55:41;;;;;;;15.47;11.63;;;;;;;2.42;100.00;96506.69;4927221;29;20216;-72
2021/12/28 07:58:11;;;;;;;14.30;11.07;;;;;;;2.41;100.00;96511.09;4924366;29;20204;-73
2021/12/28 08:00:39;;;;;;;16.20;10.63;;;;;;;2.33;100.00;96511.03;4915377;29;20218;-72
2021/12/28 08:03:07;;;;;;;13.00;10.97;;;;;;;2.30;100.00;96514.75;4923670;29;20234;-74
2021/12/28 08:05:36;;;;;;;14.97;11.17;;;;;;;2.21;100.00;96523.47;4925573;29;20404;-74
2021/12/28 08:08:05;;;;;;;13.03;10.23;;;;;;;2.31;100.00;96531.28;4896094;29;20211;-74
2021/12/28 08:10:34;;;;;;;13.83;11.00;;;;;;;2.39;100.00;96535.75;4925695;29;20214;-74
2021/12/28 08:13:02;;;;;;;12.40;10.60;;;;;;;2.33;100.00;96525.88;4923430;29;20206;-73
2021/12/28 08:15:31;;;;;;;11.90;10.27;;;;;;;2.30;100.00;96513.94;4917217;29;20632;-72
2021/12/28 08:18:02;;;;;;;12.37;9.43;;;;;;;2.25;100.00;96519.59;4923764;29;20200;-72
2021/12/28 08:20:31;;;;;;;10.83;9.03;;;;;;;2.25;100.00;96522.22;4926154;29;20204;-72
2021/12/28 08:22:59;;;;;;;11.00;9.90;;;;;;;2.20;100.00;96521.84;4897370;29;20231;-74
2021/12/28 08:25:28;;;;;;;12.57;10.67;;;;;;;2.28;100.00;96513.28;4923399;29;20772;-72
2021/12/28 08:27:57;;;;;;;14.47;10.93;;;;;;;2.24;100.00;96507.50;4924142;29;20199;-73
2021/12/28 08:30:25;;;;;;;10.57;9.23;;;;;;;2.39;100.00;96515.66;4917403;29;20756;-72
2021/12/28 08:32:55;;;;;;;10.57;8.33;;;;;;;2.37;100.00;96512.38;4922581;29;20218;-74
2021/12/28 08:35:23;;;;;;;8.80;7.90;;;;;;;2.31;100.00;96505.94;4930448;29;20214;-74
2021/12/28 08:37:51;;;;;;;12.73;8.37;;;;;;;2.35;100.00;96519.53;4897340;29;20237;-73
2021/12/28 08:40:20;;;;;;;9.30;8.07;;;;;;;2.33;100.00;96512.81;4924279;29;20219;-73
2021/12/28 08:42:48;;;;;;;10.73;7.87;;;;;;;2.29;100.00;96500.03;4929159;29;20245;-71
2021/12/28 08:45:16;;;;;;;9.67;8.07;;;;;;;2.29;100.00;96494.81;4929397;29;20211;-72
2021/12/28 08:47:45;;;;;;;11.40;8.80;;;;;;;2.27;100.00;96486.28;4913940;29;20222;-72
2021/12/28 08:50:15;;;;;;;8.90;8.10;;;;;;;2.29;100.00;96484.34;4928750;29;20224;-72
2021/12/28 08:52:43;;;;;;;11.43;9.53;;;;;;;2.22;100.00;96478.06;4918702;29;20206;-71
2021/12/28 08:55:19;;;;;;;10.10;8.53;;;;;;;2.30;100.00;96480.75;4927901;29;20575;-72
2021/12/28 08:57:48;;;;;;;9.40;8.50;;;;;;;2.24;100.00;96476.13;4929991;29;20215;-71
2021/12/28 09:00:18;;;;;;;10.07;9.07;;;;;;;2.41;100.00;96471.03;4932630;29;20211;-72
2021/12/28 09:02:46;;;;;;;10.00;8.30;;;;;;;2.45;100.00;96477.59;4916226;29;20612;-71
2021/12/28 09:05:15;;;;;;;8.77;7.97;;;;;;;2.46;100.00;96471.41;4930077;29;20210;-72
2021/12/28 09:07:44;;;;;;;7.47;6.77;;;;;;;2.55;100.00;96465.28;4917852;29;20218;-72
2021/12/28 09:10:13;;;;;;;8.10;7.27;;;;;;;2.50;100.00;96464.09;4898935;29;20842;-71
2021/12/28 09:12:41;;;;;;;8.47;7.57;;;;;;;2.59;100.00;96465.78;4928031;29;20434;-73
2021/12/28 09:15:10;;;;;;;9.17;7.13;;;;;;;2.65;100.00;96464.38;4914429;29;20215;-71
2021/12/28 09:17:38;;;;;;;9.70;7.17;;;;;;;2.77;100.00;96465.78;4912801;29;20309;-73
2021/12/28 09:20:10;;;;;;;10.53;7.10;;;;;;;2.77;100.00;96463.16;4927835;29;20227;-71
2021/12/28 09:23:00;;;;;;;8.40;7.50;;;;;;;2.85;100.00;96457.16;4929781;29;20235;-72
2021/12/28 09:25:27;;;;;;;8.70;6.67;;;;;;;2.83;100.00;96448.66;4899162;29;20219;-72
2021/12/28 09:27:56;;;;;;;7.10;6.40;;;;;;;2.79;100.00;96450.75;4932782;29;20348;-72
2021/12/28 09:30:24;;;;;;;7.37;6.33;;;;;;;2.82;100.00;96455.66;4906394;29;20211;-71
2021/12/28 09:32:52;;;;;;;6.80;6.20;;;;;;;2.99;100.00;96447.94;4914758;28;20239;-72
2021/12/28 09:35:20;;;;;;;7.47;6.43;;;;;;;3.02;100.00;96437.97;4912013;29;20216;-71
2021/12/28 09:37:48;;;;;;;6.13;5.50;;;;;;;3.10;100.00;96439.81;4920472;29;20216;-72
2021/12/28 09:40:18;;;;;;;7.37;6.50;;;;;;;3.22;100.00;96444.78;4880304;29;20211;-72
2021/12/28 09:42:46;;;;;;;6.83;5.87;;;;;;;3.33;100.00;96439.28;4916890;29;20236;-71
2021/12/28 09:45:14;;;;;;;6.30;5.80;;;;;;;3.30;100.00;96429.94;4917040;29;20395;-73
2021/12/28 09:47:43;;;;;;;6.90;5.50;;;;;;;3.31;100.00;96433.38;4915443;29;20227;-71
2021/12/28 09:50:15;;;;;;;5.60;5.10;;;;;;;3.40;100.00;96434.22;4911564;29;20266;-73
2021/12/28 09:52:44;;;;;;;5.57;5.07;;;;;;;3.38;100.00;96430.94;4919597;29;20207;-71
2021/12/28 09:55:14;;;;;;;5.60;5.10;;;;;;;3.39;100.00;96435.22;4887563;29;20223;-73
2021/12/28 09:57:44;;;;;;;5.47;4.97;;;;;;;3.44;100.00;96431.16;4915171;29;20216;-72
2021/12/28 10:00:14;;;;;;;6.47;5.30;;;;;;;3.46;100.00;96425.75;4921056;29;20224;-72
2021/12/28 10:03:01;;;;;;;6.20;5.57;;;;;;;3.53;100.00;96418.91;4915684;29;20370;-72
2021/12/28 10:05:31;;;;;;;4.83;4.50;;;;;;;3.52;100.00;96412.03;4908764;29;20350;-73
2021/12/28 10:08:00;;;;;;;5.40;4.93;;;;;;;3.52;100.00;96412.03;4920761;29;20876;-73
2021/12/28 10:10:30;;;;;;;4.33;4.00;;;;;;;3.57;100.00;96408.91;4884902;29;20661;-73
2021/12/28 10:13:03;;;;;;;5.43;4.93;;;;;;;3.63;100.00;96410.94;4920018;29;20445;-72
2021/12/28 10:15:33;;;;;;;4.73;4.43;;;;;;;3.67;100.00;96412.25;4915450;29;20585;-73
2021/12/28 10:18:04;;;;;;;4.63;4.23;;;;;;;3.72;100.00;96415.19;4916756;29;20294;-73
2021/12/28 10:20:34;;;;;;;4.40;4.00;;;;;;;3.75;100.00;96403.56;4911540;29;20219;-73
2021/12/28 10:23:04;;;;;;;3.97;3.67;;;;;;;3.79;100.00;96393.59;4919471;29;20311;-73
2021/12/28 10:25:34;;;;;;;4.63;4.27;;;;;;;3.94;100.00;96396.41;4923619;29;20211;-73
2021/12/28 10:28:06;;;;;;;4.47;3.43;;;;;;;3.97;100.00;96388.22;4884011;29;20234;-73
2021/12/28 10:30:36;;;;;;;5.20;3.93;;;;;;;4.07;100.00;96391.50;4921049;29;20216;-73
2021/12/28 10:33:06;;;;;;;4.27;3.30;;;;;;;4.18;100.00;96387.75;4915862;29;20211;-73
2021/12/28 10:35:36;;;;;;;4.43;4.07;;;;;;;4.22;100.00;96388.25;4910809;29;20223;-72
2021/12/28 10:38:06;;;;;;;12.17;7.90;;;;;;;4.33;100.00;96396.59;4918058;29;20426;-73
2021/12/28 10:40:35;;;;;;;5.67;4.10;;;;;;;4.40;100.00;96394.16;4923483;29;20226;-73
2021/12/28 10:43:08;;;;;;;3.60;3.40;;;;;;;4.45;100.00;96388.41;4888124;29;20254;-73
2021/12/28 10:45:43;;;;;;;3.50;3.20;;;;;;;4.56;100.00;96377.56;4921221;29;20672;-73
2021/12/28 10:48:15;;;;;;;2.90;2.70;;;;;;;4.75;100.00;96386.91;4917651;29;20848;-71
2021/12/28 10:50:47;;;;;;;2.90;2.70;;;;;;;5.03;100.00;96376.00;4920257;29;20208;-72
2021/12/28 10:53:20;;;;;;;2.53;2.43;;;;;;;5.11;100.00;96367.28;4916209;29;20311;-73
2021/12/28 10:55:53;;;;;;;2.97;2.77;;;;;;;5.28;100.00;96356.72;4918264;29;20214;-72
2021/12/28 10:58:39;;;;;;;2.43;2.33;;;;;;;5.45;100.00;96354.84;4888912;29;20227;-73
2021/12/28 11:01:10;;;;;;;3.60;2.90;;;;;;;5.52;100.00;96352.34;4918612;29;20211;-73
2021/12/28 11:03:40;;;;;;;3.53;3.23;;;;;;;5.59;100.00;96343.59;4920657;29;20300;-73
2021/12/28 11:06:14;;;;;;;2.77;2.63;;;;;;;5.71;100.00;96338.75;4909022;29;20713;-73
2021/12/28 11:08:44;;;;;;;2.23;2.13;;;;;;;5.75;100.00;96337.41;4918330;29;20278;-72
2021/12/28 11:11:15;;;;;;;2.00;1.90;;;;;;;5.79;100.00;96332.63;4918548;29;20832;-74
2021/12/28 11:13:45;;;;;;;2.27;2.07;;;;;;;5.71;100.00;96333.50;4885063;29;20215;-72
2021/12/28 11:16:14;;;;;;;1.90;1.80;;;;;;;5.62;100.00;96329.28;4917998;29;20421;-74
2021/12/28 11:18:43;;;;;;;1.87;1.50;;;;;;;5.58;100.00;96323.56;4919384;29;20267;-72
2021/12/28 11:21:15;;;;;;;2.40;1.53;;;;;;;5.64;100.00;96317.59;4919488;29;20210;-73
2021/12/28 11:23:44;;;;;;;1.80;1.60;;;;;;;5.65;100.00;96313.97;4905193;29;20258;-72
2021/12/28 11:26:21;;;;;;;2.60;2.37;;;;;;;5.62;100.00;96303.00;4919016;29;20230;-74
2021/12/28 11:28:59;;;;;;;2.30;2.10;;;;;;;5.68;100.00;96304.94;4885805;29;20237;-72
2021/12/28 11:31:29;;;;;;;2.80;2.60;;;;;;;5.67;100.00;96298.03;4919203;29;20214;-74